Time;durP1;ratioP1;P1;durP2;ratioP2;P2;SDS_P1;SDS_P2;PMS_P1;PMS_P2;Temp;Humidity;BMP_temperature;BMP_pressure;BME280_temperature;BME280_humidity;BME280_pressure;Samples;Min_cycle;Max_cycle;Signal;HPM_P1;HPM_P2
2020/12/20 00:01:06;;;;;;;6.02;5.32;;;9.80;99.90;;;15.22;87.21;101405.36;1767805;71;24459;-76
2020/12/20 00:03:22;;;;;;;7.32;5.10;;;9.80;99.90;;;15.15;87.20;101406.22;1769305;71;25010;-77
2020/12/20 00:05:39;;;;;;;7.25;5.02;;;9.80;99.90;;;15.03;87.53;101403.13;1774283;70;24463;-78
2020/12/20 00:07:57;;;;;;;4.62;3.61;;;9.80;99.90;;;15.07;87.72;101404.91;1783772;71;24505;-78
2020/12/20 00:10:16;;;;;;;5.43;4.54;;;9.90;99.90;;;14.98;88.16;101402.70;1783297;71;24488;-76
2020/12/20 00:12:36;;;;;;;7.36;4.27;;;9.90;99.90;;;15.17;87.79;101397.45;1786449;71;24502;-77
2020/12/20 00:14:54;;;;;;;6.62;4.35;;;9.90;99.90;;;15.13;87.83;101406.22;1791817;71;24412;-76
2020/12/20 00:17:12;;;;;;;6.93;4.36;;;9.90;99.90;;;15.03;87.79;101408.38;1795847;71;24400;-77
2020/12/20 00:19:30;;;;;;;6.53;4.35;;;9.90;99.90;;;14.99;88.56;101401.39;1784732;71;24568;-76
2020/12/20 00:21:46;;;;;;;6.33;4.39;;;9.90;99.90;;;15.08;88.36;101397.45;1784467;71;24444;-79
2020/12/20 00:24:11;;;;;;;6.06;4.16;;;10.00;99.90;;;15.04;89.17;101392.21;1784013;71;24429;-77
2020/12/20 00:26:28;;;;;;;6.06;4.21;;;10.00;99.90;;;15.25;87.60;101393.55;1753287;71;24494;-78
2020/12/20 00:28:44;;;;;;;6.59;4.08;;;10.00;99.90;;;15.09;88.18;101393.09;1787157;71;24915;-77
2020/12/20 00:31:01;;;;;;;6.11;4.17;;;10.00;99.90;;;15.21;87.80;101392.23;1787644;71;24757;-78
2020/12/20 00:33:17;;;;;;;7.29;4.48;;;10.00;99.90;;;15.13;87.59;101397.03;1786982;71;24530;-77
2020/12/20 00:35:36;;;;;;;7.65;4.53;;;10.10;99.90;;;15.09;88.07;101392.64;1786993;71;24485;-77
2020/12/20 00:37:52;;;;;;;6.69;4.40;;;10.10;99.90;;;15.39;87.41;101392.26;1786570;71;24418;-77
2020/12/20 00:40:12;;;;;;;6.33;4.54;;;10.10;99.90;;;15.52;86.27;101387.45;1786331;71;24501;-78
2020/12/20 00:42:32;;;;;;;6.54;3.84;;;10.10;99.90;;;15.54;86.15;101395.74;1763197;71;24506;-78
2020/12/20 00:44:51;;;;;;;5.54;3.86;;;10.10;99.90;;;15.22;86.44;101381.75;1781827;71;24523;-76
2020/12/20 00:47:08;;;;;;;8.61;4.54;;;10.10;99.90;;;15.24;87.16;101382.59;1794054;71;24619;-77
2020/12/20 00:49:27;;;;;;;7.67;4.40;;;10.10;99.90;;;15.30;86.99;101393.09;1782303;71;24458;-76
2020/12/20 00:51:44;;;;;;;6.76;4.54;;;10.10;99.90;;;15.41;86.33;101402.33;1797054;71;24536;-77
2020/12/20 00:54:02;;;;;;;7.27;4.83;;;10.10;99.90;;;15.36;85.73;101393.54;1754702;72;24495;-77
2020/12/20 00:56:21;;;;;;;7.50;4.71;;;10.00;99.90;;;15.44;85.47;101397.08;1784164;71;24422;-77
2020/12/20 00:58:39;;;;;;;6.44;4.10;;;10.00;99.90;;;15.44;85.27;101402.33;1789397;71;24423;-75
2020/12/20 01:01:03;;;;;;;4.51;3.41;;;10.00;99.90;;;15.08;86.69;101396.57;1789082;71;24523;-77
2020/12/20 01:03:21;;;;;;;5.40;3.82;;;10.00;99.90;;;15.01;87.64;101394.83;1786262;71;24476;-76
2020/12/20 01:05:38;;;;;;;6.86;4.01;;;10.00;99.90;;;15.22;87.04;101397.91;1784603;71;24513;-78
2020/12/20 01:07:58;;;;;;;8.20;4.25;;;10.00;99.90;;;15.24;86.54;101402.73;1770750;71;24490;-78
2020/12/20 01:10:15;;;;;;;7.30;4.29;;;10.00;99.90;;;15.32;86.16;101393.97;1777453;71;24899;-78
2020/12/20 01:12:36;;;;;;;7.00;4.08;;;10.00;99.90;;;15.33;85.54;101394.85;1769787;71;24464;-76
2020/12/20 01:14:57;;;;;;;7.19;3.85;;;9.90;99.90;;;15.07;86.63;101397.03;1780418;70;24835;-77
2020/12/20 01:17:15;;;;;;;6.41;4.23;;;9.90;99.90;;;15.11;86.96;101401.85;1769307;71;24437;-78
2020/12/20 01:19:33;;;;;;;7.44;3.98;;;9.90;99.90;;;15.29;85.75;101401.84;1768871;71;24398;-76
2020/12/20 01:21:54;;;;;;;6.79;4.38;;;9.90;99.90;;;15.17;86.37;101395.30;1775866;71;24811;-80
2020/12/20 01:24:11;;;;;;;8.29;4.59;;;9.90;99.90;;;15.17;86.49;101404.02;1770385;71;24404;-77
2020/12/20 01:26:30;;;;;;;5.17;4.20;;;9.90;99.90;;;15.24;86.43;101406.21;1784732;71;24983;-78
2020/12/20 01:28:48;;;;;;;6.31;3.75;;;9.90;99.90;;;15.26;86.44;101407.09;1772979;71;24954;-78
2020/12/20 01:31:11;;;;;;;7.76;4.59;;;9.90;99.90;;;14.90;87.21;101405.31;1777282;71;24423;-77
2020/12/20 01:33:33;;;;;;;7.46;4.26;;;9.90;99.90;;;15.27;86.36;101406.20;1767644;71;24410;-77
2020/12/20 01:35:55;;;;;;;6.27;4.05;;;9.90;99.90;;;15.21;86.35;101409.30;1749421;72;24988;-78
2020/12/20 01:38:12;;;;;;;5.74;4.62;;;9.90;99.90;;;15.15;85.84;101404.90;1766424;72;24507;-76
2020/12/20 01:40:28;;;;;;;7.31;4.61;;;9.90;99.90;;;15.10;86.46;101404.02;1774112;71;24460;-77
2020/12/20 01:42:45;;;;;;;6.20;4.34;;;9.90;99.90;;;15.15;86.20;101412.34;1746261;72;24446;-77
2020/12/20 01:45:04;;;;;;;5.90;3.49;;;9.90;99.90;;;15.13;86.35;101411.45;1758425;72;24853;-77
2020/12/20 01:47:26;;;;;;;7.12;4.56;;;9.90;99.90;;;15.00;86.88;101412.77;1768573;71;24929;-77
2020/12/20 01:49:43;;;;;;;8.99;4.10;;;9.90;99.90;;;15.12;87.23;101408.84;1778189;70;24450;-77
2020/12/20 01:52:04;;;;;;;7.17;4.30;;;9.90;99.90;;;15.16;86.24;101408.84;1771798;71;24456;-76
2020/12/20 01:54:24;;;;;;;5.44;3.40;;;9.90;99.90;;;15.10;86.49;101417.13;1778122;71;24536;-78
2020/12/20 01:56:45;;;;;;;6.35;4.07;;;9.90;99.90;;;14.92;87.20;101418.44;1765062;71;24421;-77
2020/12/20 01:59:04;;;;;;;7.96;4.41;;;9.90;99.90;;;15.08;86.55;101414.94;1768601;71;24930;-77
2020/12/20 02:01:22;;;;;;;7.18;4.31;;;9.90;99.90;;;15.17;86.16;101409.27;1761407;72;24360;-79
2020/12/20 02:03:45;;;;;;;6.55;4.73;;;9.90;99.90;;;15.02;86.57;101409.69;1770080;70;24344;-76
2020/12/20 02:06:05;;;;;;;7.84;4.71;;;9.90;99.90;;;15.22;86.46;101405.36;1779092;70;24393;-78
2020/12/20 02:08:25;;;;;;;5.55;4.07;;;9.90;99.90;;;15.22;86.03;101402.73;1771253;71;24419;-78
2020/12/20 02:10:42;;;;;;;7.73;4.21;;;9.90;99.90;;;14.98;86.46;101407.48;1774715;71;24962;-78
2020/12/20 02:13:04;;;;;;;7.74;4.69;;;9.80;99.90;;;14.94;86.83;101412.73;1770885;71;24508;-77
2020/12/20 02:15:24;;;;;;;7.24;4.90;;;9.80;99.90;;;15.16;86.50;101414.51;1774006;71;24857;-78
2020/12/20 02:17:42;;;;;;;9.41;4.88;;;9.80;99.90;;;15.04;85.79;101410.57;1771248;71;24444;-77
2020/12/20 02:20:00;;;;;;;6.99;4.94;;;9.80;99.90;;;15.14;85.73;101416.28;1774906;71;24921;-78
2020/12/20 02:22:18;;;;;;;7.25;4.51;;;9.80;99.90;;;14.98;86.52;101414.50;1760543;72;24381;-76
2020/12/20 02:24:38;;;;;;;7.34;4.90;;;9.80;99.90;;;14.80;87.10;101417.95;1771171;71;24510;-76
2020/12/20 02:26:56;;;;;;;6.51;4.82;;;9.80;99.90;;;14.87;87.04;101415.77;1772474;71;24439;-78
2020/12/20 02:29:15;;;;;;;7.22;4.84;;;9.70;99.90;;;14.91;86.77;101416.66;1775504;71;24425;-76
2020/12/20 02:31:34;;;;;;;5.16;4.07;;;9.70;99.90;;;14.87;86.97;101421.48;1768289;71;24407;-77
2020/12/20 02:33:56;;;;;;;5.79;4.63;;;9.70;99.90;;;14.69;87.43;101418.80;1765984;71;24365;-77
2020/12/20 02:36:17;;;;;;;7.59;4.90;;;9.70;99.90;;;14.72;87.75;101413.55;1763588;71;24493;-77
2020/12/20 02:38:35;;;;;;;9.72;4.76;;;9.70;99.90;;;14.84;87.74;101418.84;1784132;71;24903;-77
2020/12/20 02:41:05;;;;;;;5.72;4.26;;;9.70;99.90;;;14.90;87.46;101416.23;1785611;71;24822;-76
2020/12/20 02:43:24;;;;;;;7.63;3.86;;;9.70;99.90;;;14.86;87.03;101410.09;1771269;71;24437;-76
2020/12/20 02:45:43;;;;;;;8.05;4.31;;;9.70;99.90;;;14.78;87.20;101422.31;1765987;71;24485;-77
2020/12/20 02:47:59;;;;;;;5.58;4.15;;;9.70;99.90;;;14.85;87.14;101417.54;1778936;71;24489;-77
2020/12/20 02:50:17;;;;;;;6.81;3.60;;;9.70;99.90;;;14.79;87.06;101413.59;1769164;71;24413;-77
2020/12/20 02:52:34;;;;;;;7.15;4.21;;;9.70;99.90;;;14.85;87.54;101410.98;1773292;71;24537;-77
2020/12/20 02:54:52;;;;;;;7.85;4.30;;;9.70;99.90;;;14.96;87.16;101416.23;1776507;71;24496;-76
2020/12/20 02:57:12;;;;;;;7.81;4.40;;;9.70;99.90;;;14.90;87.59;101419.74;1769284;71;24517;-77
2020/12/20 02:59:31;;;;;;;6.67;4.00;;;9.70;99.90;;;14.93;86.68;101422.80;1777616;70;24359;-77
2020/12/20 03:01:50;;;;;;;6.58;4.21;;;9.70;99.90;;;14.90;87.12;101423.67;1784626;71;24921;-77
2020/12/20 03:04:07;;;;;;;7.34;4.49;;;9.70;99.90;;;14.93;86.81;101427.61;1775710;71;24457;-76
2020/12/20 03:06:25;;;;;;;5.73;3.81;;;9.70;99.90;;;15.08;86.45;101418.44;1777670;70;24791;-77
2020/12/20 03:08:43;;;;;;;6.82;4.18;;;9.70;99.90;;;14.99;86.89;101416.23;1769754;71;24360;-77
2020/12/20 03:11:01;;;;;;;6.22;3.87;;;9.80;99.90;;;15.09;86.41;101420.18;1771228;71;24417;-76
2020/12/20 03:13:19;;;;;;;6.32;4.15;;;9.80;99.90;;;15.09;86.68;101419.33;1766779;71;24557;-78
2020/12/20 03:15:42;;;;;;;7.54;4.06;;;9.80;99.90;;;15.00;86.41;101413.62;1774015;71;24408;-79
2020/12/20 03:18:00;;;;;;;7.65;4.09;;;9.80;99.90;;;15.15;86.28;101409.72;1779665;71;24919;-76
2020/12/20 03:20:21;;;;;;;8.47;4.47;;;9.80;99.90;;;15.02;86.23;101408.38;1778230;70;24476;-78
2020/12/20 03:22:39;;;;;;;6.97;4.16;;;9.80;99.90;;;14.99;86.07;101408.38;1779851;71;24472;-77
2020/12/20 03:25:00;;;;;;;11.10;3.87;;;9.80;99.90;;;14.98;86.67;101410.11;1775001;71;24433;-78
2020/12/20 03:27:32;;;;;;;7.74;3.71;;;9.80;99.90;;;14.90;86.85;101408.37;1777398;71;24374;-78
2020/12/20 03:30:10;;;;;;;6.40;3.86;;;9.80;99.90;;;15.00;86.90;101404.44;1768051;71;24933;-77
2020/12/20 03:32:34;;;;;;;6.19;4.08;;;9.80;99.90;;;15.22;86.20;101413.66;1752918;72;24865;-76
2020/12/20 03:34:57;;;;;;;8.08;4.08;;;9.80;99.90;;;15.16;85.65;101410.58;1770875;71;24431;-77
2020/12/20 03:37:20;;;;;;;4.49;3.62;;;9.80;99.90;;;14.99;87.07;101411.00;1775941;70;24377;-77
2020/12/20 03:39:41;;;;;;;7.52;4.27;;;9.80;99.90;;;15.06;86.61;101416.24;1758556;71;24346;-77
2020/12/20 03:41:59;;;;;;;5.53;3.64;;;9.80;99.90;;;15.30;85.99;101421.95;1767153;72;25020;-77
2020/12/20 03:44:18;;;;;;;9.24;2.86;;;9.80;99.90;;;15.08;86.00;101421.06;1774043;71;24474;-77
2020/12/20 03:46:35;;;;;;;6.50;4.05;;;9.80;99.90;;;14.75;87.79;101422.31;1769093;71;24548;-77
2020/12/20 03:48:52;;;;;;;6.09;3.50;;;9.80;99.90;;;15.04;87.02;101422.38;1746906;72;24453;-77
2020/12/20 03:51:12;;;;;;;7.68;4.11;;;9.90;99.90;;;14.96;87.39;101422.80;1769141;72;24351;-77
2020/12/20 03:53:33;;;;;;;8.20;3.34;;;9.90;99.90;;;15.14;86.32;101425.00;1740903;72;24366;-78
2020/12/20 03:55:51;;;;;;;6.45;3.79;;;9.90;99.90;;;14.90;87.06;101424.10;1778580;70;24846;-77
2020/12/20 03:58:08;;;;;;;7.24;3.92;;;9.80;99.90;;;14.95;87.11;101420.59;1774491;71;24465;-77
2020/12/20 04:00:28;;;;;;;6.15;3.50;;;9.90;99.90;;;15.10;87.19;101421.95;1778638;71;24468;-77
2020/12/20 04:02:51;;;;;;;5.80;3.15;;;9.90;99.90;;;15.06;86.46;101423.27;1773087;71;24396;-76
2020/12/20 04:05:15;;;;;;;6.23;3.77;;;9.90;99.90;;;14.96;87.02;101424.11;1766612;71;24389;-78
2020/12/20 04:07:39;;;;;;;8.23;3.91;;;9.90;99.90;;;15.30;86.00;101418.47;1764367;71;24437;-78
2020/12/20 04:09:52;;;;;;;9.21;3.67;;;9.90;99.90;;;15.13;86.05;101425.00;1768951;71;24415;-77
2020/12/20 04:12:12;;;;;;;7.34;3.89;;;9.90;99.90;;;15.14;86.20;101429.40;1785117;71;24456;-77
2020/12/20 04:14:31;;;;;;;5.76;3.87;;;9.90;99.90;;;15.15;85.85;101425.89;1781900;71;24517;-78
2020/12/20 04:16:47;;;;;;;8.94;3.96;;;9.90;99.90;;;15.08;85.77;101418.87;1766916;71;24474;-76
2020/12/20 04:19:07;;;;;;;5.11;2.99;;;9.90;99.90;;;15.21;85.53;101427.20;1770757;71;24403;-78
2020/12/20 04:21:25;;;;;;;6.66;3.70;;;9.90;99.90;;;15.21;85.56;101431.14;1770989;71;24465;-78
2020/12/20 04:23:43;;;;;;;6.76;3.41;;;9.90;99.90;;;15.09;85.55;101433.30;1770113;71;24437;-79
2020/12/20 04:26:09;;;;;;;8.84;3.92;;;9.90;99.90;;;14.88;86.56;101432.39;1753888;72;24387;-78
2020/12/20 04:28:45;;;;;;;6.97;3.85;;;9.90;99.90;;;15.16;85.89;101428.52;1768343;71;24370;-77
2020/12/20 04:31:04;;;;;;;5.74;3.56;;;9.90;99.90;;;15.28;85.46;101425.46;1767291;72;24371;-77
2020/12/20 04:33:22;;;;;;;6.07;2.70;;;9.80;99.90;;;14.94;86.78;101427.16;1767789;71;24895;-77
2020/12/20 04:35:42;;;;;;;6.92;3.44;;;9.90;99.90;;;14.84;87.35;101424.09;1769402;71;24427;-78
2020/12/20 04:38:00;;;;;;;9.23;4.03;;;9.90;99.90;;;15.07;86.87;101426.31;1770253;71;24551;-76
2020/12/20 04:40:18;;;;;;;6.50;3.11;;;9.90;99.90;;;15.09;86.39;101424.11;1775038;71;24391;-77
2020/12/20 04:42:36;;;;;;;6.58;3.16;;;9.90;99.90;;;15.13;86.04;101422.38;1770956;71;24381;-78
2020/12/20 04:44:53;;;;;;;7.75;3.69;;;9.90;99.90;;;15.08;86.47;101407.95;1770985;71;24419;-77
2020/12/20 04:47:14;;;;;;;6.02;3.53;;;9.90;99.90;;;15.30;85.58;101415.84;1781016;71;24448;-78
2020/12/20 04:49:33;;;;;;;5.11;3.45;;;9.90;99.90;;;15.22;86.03;101414.97;1774443;71;24429;-77
2020/12/20 04:51:55;;;;;;;6.14;3.22;;;9.90;99.90;;;14.98;86.47;101419.75;1771438;71;24351;-79
2020/12/20 04:54:14;;;;;;;9.63;3.70;;;9.90;99.90;;;15.16;86.12;101411.89;1741396;72;24961;-76
2020/12/20 04:56:34;;;;;;;6.19;3.88;;;9.90;99.90;;;15.16;85.87;101412.77;1765900;71;24416;-77
2020/12/20 04:58:54;;;;;;;8.80;3.70;;;9.90;99.90;;;15.18;85.39;101412.77;1771388;71;24918;-77
2020/12/20 05:01:12;;;;;;;6.23;3.68;;;9.90;99.90;;;15.17;85.05;101422.38;1789934;71;24360;-78
2020/12/20 05:03:32;;;;;;;6.36;3.60;;;9.90;99.90;;;15.16;84.64;101422.38;1765100;71;24446;-78
2020/12/20 05:05:49;;;;;;;7.88;3.92;;;9.90;99.90;;;15.24;85.11;101421.95;1769174;72;24436;-77
2020/12/20 05:08:11;;;;;;;8.12;3.98;;;9.90;99.90;;;15.21;84.49;101424.58;1774976;71;24465;-78
2020/12/20 05:10:42;;;;;;;7.79;3.60;;;9.90;99.90;;;15.25;84.34;101417.59;1767186;71;24489;-77
2020/12/20 05:13:00;;;;;;;6.86;3.65;;;9.80;99.90;;;15.08;85.42;101424.11;1788084;70;24448;-76
2020/12/20 05:15:24;;;;;;;6.58;3.49;;;9.90;99.90;;;15.05;85.30;101430.67;1774608;71;24894;-77
2020/12/20 05:17:48;;;;;;;9.49;4.07;;;9.90;99.90;;;15.17;84.82;101425.47;1772519;71;24402;-78
2020/12/20 05:20:12;;;;;;;8.25;4.12;;;9.90;99.90;;;15.37;84.22;101425.03;1769648;71;24411;-79
2020/12/20 05:22:31;;;;;;;7.17;3.07;;;9.80;99.90;;;15.46;84.47;101426.37;1774500;71;24423;-77
2020/12/20 05:24:51;;;;;;;5.44;3.56;;;9.80;99.90;;;15.19;83.84;101433.77;1776534;71;24390;-78
2020/12/20 05:27:27;;;;;;;8.40;3.83;;;9.80;99.90;;;15.28;84.14;101438.58;1773383;71;24445;-78
2020/12/20 05:29:46;;;;;;;9.22;3.89;;;9.80;99.90;;;15.24;84.52;101440.32;1788163;71;24480;-77
2020/12/20 05:32:03;;;;;;;8.19;3.56;;;9.80;99.90;;;15.27;84.29;101437.70;1771933;70;24441;-77
2020/12/20 05:34:23;;;;;;;5.82;3.40;;;9.80;99.90;;;15.16;84.81;101439.00;1774977;70;24837;-77
2020/12/20 05:36:40;;;;;;;8.53;3.56;;;9.80;99.90;;;15.16;84.77;101442.94;1770149;71;24427;-77
2020/12/20 05:39:17;;;;;;;6.62;3.61;;;9.80;99.90;;;15.07;84.86;101444.67;1772578;70;24507;-76
2020/12/20 05:41:37;;;;;;;7.74;3.50;;;9.80;99.90;;;15.23;85.00;101454.33;1777123;71;24340;-77
2020/12/20 05:43:56;;;;;;;10.58;3.98;;;9.80;99.90;;;15.19;84.55;101443.37;1780977;71;24639;-78
2020/12/20 05:46:16;;;;;;;8.63;3.85;;;9.80;99.90;;;15.29;84.17;101450.39;1769215;71;24433;-78
2020/12/20 05:48:34;;;;;;;8.91;3.71;;;9.80;99.90;;;15.33;84.01;101446.91;1772668;71;24453;-77
2020/12/20 05:50:55;;;;;;;8.12;3.85;;;9.80;99.90;;;15.24;84.20;101448.19;1758320;71;24434;-77
2020/12/20 05:53:13;;;;;;;7.18;3.33;;;9.80;99.90;;;15.08;84.45;101448.61;1775187;71;24508;-78
2020/12/20 05:55:40;;;;;;;8.26;3.47;;;9.70;99.90;;;14.95;85.44;101444.20;1770573;71;24497;-78
2020/12/20 05:58:08;;;;;;;7.98;3.57;;;9.80;99.90;;;15.07;85.34;101452.12;1763847;71;24447;-77
2020/12/20 06:00:29;;;;;;;8.40;3.27;;;9.80;99.90;;;15.13;85.45;101449.50;1783098;71;24584;-78
2020/12/20 06:02:48;;;;;;;7.35;3.98;;;9.80;99.90;;;14.95;85.77;101455.16;1760638;71;24476;-77
2020/12/20 06:05:05;;;;;;;7.73;3.62;;;9.80;99.90;;;15.13;85.64;101456.48;1772625;71;24420;-78
2020/12/20 06:07:27;;;;;;;8.99;3.73;;;9.80;99.90;;;15.33;84.06;101454.78;1778280;70;24966;-76
2020/12/20 06:09:58;;;;;;;5.92;3.77;;;9.80;99.90;;;14.96;85.49;101453.84;1770100;71;25120;-77
2020/12/20 06:12:22;;;;;;;8.54;3.58;;;9.80;99.90;;;15.22;85.45;101462.20;1768586;72;24912;-78
2020/12/20 06:14:45;;;;;;;8.92;3.83;;;9.80;99.90;;;15.12;84.67;101459.98;1783972;71;24412;-79
2020/12/20 06:17:19;;;;;;;5.60;3.54;;;9.80;99.90;;;15.35;84.44;101460.88;1764523;71;24865;-78
2020/12/20 06:19:44;;;;;;;10.84;3.99;;;9.80;99.90;;;15.21;84.19;101461.77;1785667;71;24492;-76
2020/12/20 06:22:06;;;;;;;6.71;3.21;;;9.70;99.90;;;15.17;84.46;101462.19;1768780;71;24874;-77
2020/12/20 06:24:26;;;;;;;6.08;3.62;;;9.80;99.90;;;14.95;85.53;101466.95;1775146;71;24477;-76
2020/12/20 06:26:45;;;;;;;9.57;4.24;;;9.70;99.90;;;15.14;85.38;101466.12;1768204;71;24914;-78
2020/12/20 06:29:05;;;;;;;9.79;3.86;;;9.70;99.90;;;15.21;84.52;101462.62;1770031;71;24484;-78
2020/12/20 06:31:23;;;;;;;9.70;3.61;;;9.70;99.90;;;15.27;84.20;101460.00;1767568;71;24420;-76
2020/12/20 06:33:45;;;;;;;7.87;3.82;;;9.70;99.90;;;14.99;84.74;101462.14;1769482;71;24413;-77
2020/12/20 06:36:09;;;;;;;7.60;3.90;;;9.70;99.90;;;15.04;84.88;101458.67;1766700;71;24640;-76
2020/12/20 06:38:26;;;;;;;9.26;3.98;;;9.70;99.90;;;14.99;85.30;101467.38;1771350;71;24858;-77
2020/12/20 06:40:47;;;;;;;5.83;3.64;;;9.60;99.90;;;14.99;85.24;101467.38;1768192;71;24954;-78
2020/12/20 06:43:04;;;;;;;7.75;3.38;;;9.60;99.90;;;14.93;85.24;101464.75;1768918;72;24418;-78
2020/12/20 06:45:24;;;;;;;10.51;3.63;;;9.60;99.90;;;14.89;85.33;101472.19;1766113;71;24881;-75
2020/12/20 06:47:45;;;;;;;7.52;3.80;;;9.60;99.90;;;14.88;85.45;101470.41;1769749;71;24427;-78
2020/12/20 06:50:06;;;;;;;11.55;3.42;;;9.60;99.90;;;14.99;85.16;101471.31;1775008;71;24589;-76
2020/12/20 06:52:28;;;;;;;9.16;4.06;;;9.60;99.90;;;14.92;85.53;101474.81;1792113;71;24435;-77
2020/12/20 06:55:07;;;;;;;10.01;3.47;;;9.60;99.90;;;14.88;85.59;101475.66;1770671;71;24867;-78
2020/12/20 06:57:24;;;;;;;6.83;3.98;;;9.60;99.90;;;14.93;85.82;101470.88;1770921;71;24513;-77
2020/12/20 06:59:49;;;;;;;8.80;3.65;;;9.60;99.90;;;15.10;85.23;101469.59;1777981;71;24884;-77
2020/12/20 07:02:08;;;;;;;8.26;3.50;;;9.60;99.90;;;15.10;84.77;101469.59;1756366;72;24432;-76
2020/12/20 07:04:30;;;;;;;7.31;3.26;;;9.60;99.90;;;14.95;85.22;101470.89;1777508;71;24432;-76
2020/12/20 07:07:09;;;;;;;8.44;3.94;;;9.50;99.90;;;14.74;85.73;101480.87;1766769;71;24570;-78
2020/12/20 07:09:34;;;;;;;8.95;4.25;;;9.50;99.90;;;14.85;85.78;101483.52;1769743;71;24846;-77
2020/12/20 07:11:52;;;;;;;6.60;3.12;;;9.50;99.90;;;14.89;85.60;101485.30;1775199;71;24854;-77
2020/12/20 07:14:21;;;;;;;8.94;3.67;;;9.50;99.90;;;14.74;86.19;101476.94;1769519;71;24842;-77
2020/12/20 07:16:42;;;;;;;12.27;4.48;;;9.50;99.90;;;14.90;85.99;101472.61;1770027;71;24438;-78
2020/12/20 07:19:02;;;;;;;8.30;3.68;;;9.50;99.90;;;14.79;86.58;101482.19;1773025;71;24900;-76
2020/12/20 07:22:15;;;;;;;8.77;3.79;;;9.50;99.90;;;14.78;86.95;101483.93;1766149;71;24430;-76
2020/12/20 07:24:35;;;;;;;8.96;3.41;;;9.50;99.90;;;14.83;85.90;101484.83;1769429;71;24866;-76
2020/12/20 07:26:56;;;;;;;9.26;3.71;;;9.40;99.90;;;14.63;86.93;101490.44;1784772;70;24508;-78
2020/12/20 07:29:15;;;;;;;7.33;3.63;;;9.50;99.90;;;14.97;85.87;101483.55;1773103;71;24410;-78
2020/12/20 07:31:32;;;;;;;7.75;3.69;;;9.40;99.90;;;14.67;86.36;101487.37;1776004;71;24609;-76
2020/12/20 07:33:51;;;;;;;10.27;3.92;;;9.40;99.90;;;14.81;86.39;101482.62;1784579;71;24856;-77
2020/12/20 07:36:08;;;;;;;9.53;3.77;;;9.40;99.90;;;14.79;86.20;101496.61;1773497;71;24528;-79
2020/12/20 07:38:28;;;;;;;9.07;3.91;;;9.40;99.90;;;14.72;86.31;101491.78;1777913;71;24427;-77
2020/12/20 07:40:50;;;;;;;8.56;3.63;;;9.40;99.90;;;14.81;85.99;101495.73;1771530;71;24428;-77
2020/12/20 07:43:06;;;;;;;9.90;4.21;;;9.40;99.90;;;14.66;86.49;101492.18;1772942;71;24951;-78
2020/12/20 07:45:22;;;;;;;7.27;3.28;;;9.40;99.90;;;14.89;85.90;101495.33;1774736;71;24526;-78
2020/12/20 07:47:42;;;;;;;9.97;3.88;;;9.40;99.90;;;14.68;86.27;101497.01;1769708;71;24466;-78
2020/12/20 07:50:01;;;;;;;9.77;4.34;;;9.40;99.90;;;14.83;86.06;101504.92;1780111;70;24520;-78
2020/12/20 07:52:22;;;;;;;7.24;3.43;;;9.40;99.90;;;14.83;85.56;101508.42;1777332;71;24450;-78
2020/12/20 07:54:43;;;;;;;8.44;3.78;;;9.40;99.90;;;14.79;86.04;101514.55;1770103;71;24437;-76
2020/12/20 07:57:01;;;;;;;7.19;3.05;;;9.40;99.90;;;14.81;85.54;101512.78;1774357;71;24907;-78
2020/12/20 07:59:23;;;;;;;11.91;3.95;;;9.40;99.90;;;14.57;86.69;101524.48;1786485;71;24669;-79
2020/12/20 08:01:42;;;;;;;8.08;3.74;;;9.50;99.90;;;14.81;86.51;101510.16;1770444;71;24530;-77
2020/12/20 08:04:20;;;;;;;7.82;3.65;;;9.50;99.90;;;14.63;87.08;101515.77;1783468;71;24496;-78
2020/12/20 08:06:41;;;;;;;11.95;3.96;;;9.50;99.90;;;14.83;86.93;101513.67;1778247;71;24428;-78
2020/12/20 08:09:14;;;;;;;10.11;4.05;;;9.50;99.90;;;14.91;86.38;101513.69;1777107;71;24550;-79
2020/12/20 08:11:33;;;;;;;9.82;3.64;;;9.40;99.90;;;14.89;86.08;101522.02;1771636;71;24833;-78
2020/12/20 08:14:02;;;;;;;10.00;3.95;;;9.50;99.90;;;15.03;85.57;101525.09;1776673;71;24426;-78
2020/12/20 08:16:25;;;;;;;8.54;3.41;;;9.50;99.90;;;14.97;85.53;101539.93;1776014;71;24397;-77
2020/12/20 08:18:59;;;;;;;6.19;2.75;;;9.50;99.90;;;14.76;86.43;101530.23;1753738;72;24585;-78
2020/12/20 08:21:20;;;;;;;7.90;3.72;;;9.50;99.90;;;14.72;86.12;101540.28;1784399;71;24849;-77
2020/12/20 08:23:36;;;;;;;7.65;3.36;;;9.50;99.90;;;14.77;86.20;101533.31;1792304;71;24877;-78
2020/12/20 08:25:53;;;;;;;9.80;3.78;;;9.50;99.90;;;14.99;86.48;101534.27;1788185;71;24500;-77
2020/12/20 08:28:10;;;;;;;8.98;3.75;;;9.50;99.90;;;14.87;86.28;101530.30;1784827;71;24467;-78
2020/12/20 08:30:32;;;;;;;10.05;3.85;;;9.50;99.90;;;14.79;86.60;101528.97;1788499;71;24511;-78
2020/12/20 08:32:49;;;;;;;8.21;3.13;;;9.60;99.90;;;14.90;86.02;101519.81;1784321;71;24421;-79
2020/12/20 08:35:17;;;;;;;8.56;3.97;;;9.60;99.90;;;14.74;86.93;101529.80;1784794;71;24548;-76
2020/12/20 08:37:35;;;;;;;9.42;3.50;;;9.60;99.90;;;14.81;86.42;101527.66;1789150;71;24489;-78
2020/12/20 08:39:53;;;;;;;8.96;3.47;;;9.60;99.90;;;14.98;86.54;101539.94;1784254;71;24419;-78
2020/12/20 08:42:12;;;;;;;7.56;3.35;;;9.60;99.90;;;14.92;86.07;101541.69;1784227;71;24426;-77
2020/12/20 08:44:30;;;;;;;9.66;3.21;;;9.70;99.90;;;15.03;86.26;101542.60;1784025;71;24941;-76
2020/12/20 08:46:47;;;;;;;6.63;3.31;;;9.60;99.90;;;14.90;86.72;101541.69;1785389;71;24521;-78
2020/12/20 08:49:19;;;;;;;9.24;3.70;;;9.70;99.90;;;15.00;86.25;101539.97;1784535;71;24710;-77
2020/12/20 08:51:36;;;;;;;7.68;3.79;;;9.70;99.90;;;15.00;86.55;101541.28;1790301;71;24640;-78
2020/12/20 08:53:52;;;;;;;6.83;3.39;;;9.80;99.90;;;15.10;86.03;101540.42;1784218;71;24508;-78
2020/12/20 08:56:12;;;;;;;7.50;3.10;;;9.80;99.90;;;14.97;86.86;101541.24;1793448;71;24931;-78
2020/12/20 08:58:31;;;;;;;8.47;3.54;;;9.80;99.90;;;15.03;86.04;101536.05;1784217;71;24975;-79
2020/12/20 09:00:51;;;;;;;7.82;3.42;;;9.80;99.90;;;15.02;86.79;101544.77;1786779;71;24856;-76
2020/12/20 09:03:10;;;;;;;11.14;3.08;;;9.80;99.90;;;15.06;86.31;101548.71;1785269;71;24414;-79
2020/12/20 09:05:33;;;;;;;7.70;3.13;;;9.90;99.90;;;14.81;87.31;101570.47;1788804;71;24425;-79
2020/12/20 09:07:52;;;;;;;8.60;3.19;;;9.90;99.90;;;14.90;87.31;101573.58;1792775;71;24465;-78
2020/12/20 09:10:14;;;;;;;9.71;3.33;;;10.00;99.90;;;15.07;86.12;101570.58;1759378;72;24444;-78
2020/12/20 09:12:30;;;;;;;8.65;3.87;;;9.90;99.90;;;15.06;85.91;101568.38;1789724;71;24569;-76
2020/12/20 09:15:08;;;;;;;8.59;3.32;;;10.00;99.90;;;15.46;84.80;101570.73;1794019;71;24418;-78
2020/12/20 09:17:36;;;;;;;8.59;3.72;;;10.00;99.90;;;15.06;85.51;101570.16;1787043;71;24909;-78
2020/12/20 09:19:59;;;;;;;8.27;3.52;;;10.00;99.90;;;15.19;85.22;101579.80;1769590;71;24412;-79
2020/12/20 09:22:15;;;;;;;8.86;4.00;;;10.00;99.90;;;15.34;84.93;101582.91;1769702;71;24496;-79
2020/12/20 09:24:34;;;;;;;5.67;2.86;;;10.00;99.90;;;15.45;83.94;101576.86;1780119;70;24524;-80
2020/12/20 09:27:01;;;;;;;11.18;3.27;;;10.00;99.90;;;14.86;86.55;101580.97;1767424;70;24534;-77
2020/12/20 09:29:19;;;;;;;7.10;3.24;;;10.00;99.90;;;15.07;86.29;101575.83;1771988;71;24421;-78
2020/12/20 09:31:35;;;;;;;10.16;4.16;;;10.10;99.90;;;15.13;85.36;101586.34;1742016;72;24976;-80
2020/12/20 09:33:52;;;;;;;8.31;4.02;;;10.10;99.90;;;15.36;84.66;101584.69;1776940;71;24446;-78
2020/12/20 09:36:15;;;;;;;9.13;2.70;;;10.10;99.90;;;15.47;84.03;101585.63;1782722;71;24523;-76
2020/12/20 09:38:39;;;;;;;7.67;4.01;;;10.10;99.90;;;15.09;85.49;101583.28;1776188;70;24438;-78
2020/12/20 09:41:07;;;;;;;8.97;3.55;;;10.10;99.90;;;15.39;84.83;101586.05;1771038;70;24454;-78
2020/12/20 09:43:27;;;;;;;12.41;3.99;;;10.20;99.90;;;15.34;85.08;101590.78;1776972;71;24428;-77
2020/12/20 09:45:43;;;;;;;13.53;3.90;;;10.10;99.90;;;15.33;84.42;101588.62;1765178;71;24500;-78
2020/12/20 09:48:07;;;;;;;10.71;3.80;;;10.20;99.90;;;15.37;83.95;101585.12;1787910;71;24456;-78
2020/12/20 09:50:24;;;;;;;7.58;3.70;;;10.20;99.90;;;15.35;84.48;101592.10;1771251;71;24430;-77